sensor_id;sensor_type;location;lat;lon;timestamp;temperature;humidity
20946;DHT22;10632;51.276;7.116;2023-04-01T00:00:47;8.40;99.90
20946;DHT22;10632;51.276;7.116;2023-04-01T00:03:14;8.40;99.90
20946;DHT22;10632;51.276;7.116;2023-04-01T00:05:40;8.40;99.90
20946;DHT22;10632;51.276;7.116;2023-04-01T00:08:07;8.40;99.90
20946;DHT22;10632;51.276;7.116;2023-04-01T00:10:34;8.30;99.90
20946;DHT22;10632;51.276;7.116;2023-04-01T00:13:01;8.30;99.90
20946;DHT22;10632;51.276;7.116;2023-04-01T00:15:29;8.30;99.90
20946;DHT22;10632;51.276;7.116;2023-04-01T00:17:56;8.40;99.90
20946;DHT22;10632;51.276;7.116;2023-04-01T00:20:24;8.30;99.90
20946;DHT22;10632;51.276;7.116;2023-04-01T00:22:51;8.30;99.90
20946;DHT22;10632;51.276;7.116;2023-04-01T00:25:18;8.30;99.90
20946;DHT22;10632;51.276;7.116;2023-04-01T00:27:45;8.30;99.90
20946;DHT22;10632;51.276;7.116;2023-04-01T00:30:12;8.30;99.90
20946;DHT22;10632;51.276;7.116;2023-04-01T00:32:41;8.30;99.90
20946;DHT22;10632;51.276;7.116;2023-04-01T00:35:08;8.20;99.90
20946;DHT22;10632;51.276;7.116;2023-04-01T00:37:36;8.20;99.90
20946;DHT22;10632;51.276;7.116;2023-04-01T00:40:04;8.20;99.90
20946;DHT22;10632;51.276;7.116;2023-04-01T00:42:32;8.20;99.90
20946;DHT22;10632;51.276;7.116;2023-04-01T00:44:58;8.20;99.90
20946;DHT22;10632;51.276;7.116;2023-04-01T00:47:47;8.20;99.90
20946;DHT22;10632;51.276;7.116;2023-04-01T00:50:14;8.20;99.90
20946;DHT22;10632;51.276;7.116;2023-04-01T00:52:42;8.20;99.90
20946;DHT22;10632;51.276;7.116;2023-04-01T00:55:11;8.20;99.90
20946;DHT22;10632;51.276;7.116;2023-04-01T00:57:41;8.20;99.90
20946;DHT22;10632;51.276;7.116;2023-04-01T01:00:11;8.20;99.90
20946;DHT22;10632;51.276;7.116;2023-04-01T01:02:41;8.20;99.90
20946;DHT22;10632;51.276;7.116;2023-04-01T01:05:11;8.30;99.90
20946;DHT22;10632;51.276;7.116;2023-04-01T01:07:46;8.30;99.90
20946;DHT22;10632;51.276;7.116;2023-04-01T01:10:18;8.30;99.90
20946;DHT22;10632;51.276;7.116;2023-04-01T01:12:50;8.30;99.90
20946;DHT22;10632;51.276;7.116;2023-04-01T01:15:22;8.30;99.90
20946;DHT22;10632;51.276;7.116;2023-04-01T01:17:55;8.20;99.90
20946;DHT22;10632;51.276;7.116;2023-04-01T01:26:55;8.20;99.90
20946;DHT22;10632;51.276;7.116;2023-04-01T01:35:28;8.20;99.90
20946;DHT22;10632;51.276;7.116;2023-04-01T01:38:00;8.20;99.90
20946;DHT22;10632;51.276;7.116;2023-04-01T01:40:30;8.30;99.90
20946;DHT22;10632;51.276;7.116;2023-04-01T01:43:02;8.20;99.90
20946;DHT22;10632;51.276;7.116;2023-04-01T01:45:33;8.30;99.90
20946;DHT22;10632;51.276;7.116;2023-04-01T01:48:02;8.20;99.90
20946;DHT22;10632;51.276;7.116;2023-04-01T01:50:32;8.20;99.90
20946;DHT22;10632;51.276;7.116;2023-04-01T01:53:02;8.20;99.90
20946;DHT22;10632;51.276;7.116;2023-04-01T01:55:32;8.20;99.90
20946;DHT22;10632;51.276;7.116;2023-04-01T01:58:02;8.20;99.90
20946;DHT22;10632;51.276;7.116;2023-04-01T02:00:32;8.20;99.90
20946;DHT22;10632;51.276;7.116;2023-04-01T02:03:00;8.20;99.90
20946;DHT22;10632;51.276;7.116;2023-04-01T02:05:29;8.20;99.90
20946;DHT22;10632;51.276;7.116;2023-04-01T02:08:06;8.20;99.90
20946;DHT22;10632;51.276;7.116;2023-04-01T02:10:36;8.20;99.90
20946;DHT22;10632;51.276;7.116;2023-04-01T02:13:09;8.10;99.90
20946;DHT22;10632;51.276;7.116;2023-04-01T02:18:07;8.20;99.90
20946;DHT22;10632;51.276;7.116;2023-04-01T02:20:35;8.10;99.90
20946;DHT22;10632;51.276;7.116;2023-04-01T02:23:06;8.10;99.90
20946;DHT22;10632;51.276;7.116;2023-04-01T02:25:35;8.10;99.90
20946;DHT22;10632;51.276;7.116;2023-04-01T02:28:05;8.10;99.90
20946;DHT22;10632;51.276;7.116;2023-04-01T02:30:35;8.10;99.90
20946;DHT22;10632;51.276;7.116;2023-04-01T02:33:04;8.10;99.90
20946;DHT22;10632;51.276;7.116;2023-04-01T02:35:33;8.10;99.90
20946;DHT22;10632;51.276;7.116;2023-04-01T02:38:01;8.10;99.90
20946;DHT22;10632;51.276;7.116;2023-04-01T02:40:29;8.10;99.90
20946;DHT22;10632;51.276;7.116;2023-04-01T02:42:56;8.10;99.90
20946;DHT22;10632;51.276;7.116;2023-04-01T02:45:23;8.10;99.90
20946;DHT22;10632;51.276;7.116;2023-04-01T02:47:50;8.10;99.90
20946;DHT22;10632;51.276;7.116;2023-04-01T02:50:17;8.00;99.90
20946;DHT22;10632;51.276;7.116;2023-04-01T02:52:44;8.00;99.90
20946;DHT22;10632;51.276;7.116;2023-04-01T02:55:11;8.00;99.90
20946;DHT22;10632;51.276;7.116;2023-04-01T02:57:39;8.00;99.90
20946;DHT22;10632;51.276;7.116;2023-04-01T03:00:07;8.00;99.90
20946;DHT22;10632;51.276;7.116;2023-04-01T03:02:40;8.00;99.90
20946;DHT22;10632;51.276;7.116;2023-04-01T03:05:09;7.90;99.90
20946;DHT22;10632;51.276;7.116;2023-04-01T03:07:36;7.90;99.90
20946;DHT22;10632;51.276;7.116;2023-04-01T03:10:04;7.90;99.90
20946;DHT22;10632;51.276;7.116;2023-04-01T03:12:31;7.90;99.90
20946;DHT22;10632;51.276;7.116;2023-04-01T03:15:00;7.90;99.90
20946;DHT22;10632;51.276;7.116;2023-04-01T03:17:27;7.90;99.90
20946;DHT22;10632;51.276;7.116;2023-04-01T03:19:53;7.90;99.90
20946;DHT22;10632;51.276;7.116;2023-04-01T03:22:20;7.90;99.90
20946;DHT22;10632;51.276;7.116;2023-04-01T03:24:48;7.80;99.90
20946;DHT22;10632;51.276;7.116;2023-04-01T03:27:15;7.80;99.90
20946;DHT22;10632;51.276;7.116;2023-04-01T03:29:42;7.80;99.90
20946;DHT22;10632;51.276;7.116;2023-04-01T03:32:10;7.80;99.90
20946;DHT22;10632;51.276;7.116;2023-04-01T03:34:37;7.80;99.90
20946;DHT22;10632;51.276;7.116;2023-04-01T03:37:03;7.80;99.90
20946;DHT22;10632;51.276;7.116;2023-04-01T03:39:31;7.80;99.90
20946;DHT22;10632;51.276;7.116;2023-04-01T03:41:58;7.70;99.90
20946;DHT22;10632;51.276;7.116;2023-04-01T03:44:26;7.80;99.90
20946;DHT22;10632;51.276;7.116;2023-04-01T03:46:52;7.80;99.90
20946;DHT22;10632;51.276;7.116;2023-04-01T03:49:21;7.80;99.90
20946;DHT22;10632;51.276;7.116;2023-04-01T03:51:48;7.80;99.90
20946;DHT22;10632;51.276;7.116;2023-04-01T03:54:14;7.80;99.90
20946;DHT22;10632;51.276;7.116;2023-04-01T03:56:42;7.80;99.90
20946;DHT22;10632;51.276;7.116;2023-04-01T03:59:09;7.80;99.90
20946;DHT22;10632;51.276;7.116;2023-04-01T04:01:36;7.80;99.90
20946;DHT22;10632;51.276;7.116;2023-04-01T04:04:03;7.80;99.90
20946;DHT22;10632;51.276;7.116;2023-04-01T04:06:32;7.80;99.90
20946;DHT22;10632;51.276;7.116;2023-04-01T04:08:59;7.80;99.90
20946;DHT22;10632;51.276;7.116;2023-04-01T04:11:26;7.80;99.90
20946;DHT22;10632;51.276;7.116;2023-04-01T04:13:53;7.80;99.90
20946;DHT22;10632;51.276;7.116;2023-04-01T04:16:20;7.90;99.90
20946;DHT22;10632;51.276;7.116;2023-04-01T04:18:47;7.90;99.90
20946;DHT22;10632;51.276;7.116;2023-04-01T04:21:14;7.80;99.90
20946;DHT22;10632;51.276;7.116;2023-04-01T04:23:44;7.90;99.90
20946;DHT22;10632;51.276;7.116;2023-04-01T04:26:17;7.90;99.90
20946;DHT22;10632;51.276;7.116;2023-04-01T04:28:44;7.90;99.90
20946;DHT22;10632;51.276;7.116;2023-04-01T04:31:11;7.90;99.90
20946;DHT22;10632;51.276;7.116;2023-04-01T04:33:38;7.90;99.90
20946;DHT22;10632;51.276;7.116;2023-04-01T04:36:05;7.90;99.90
20946;DHT22;10632;51.276;7.116;2023-04-01T04:38:32;8.00;99.90
20946;DHT22;10632;51.276;7.116;2023-04-01T04:41:00;7.90;99.90
20946;DHT22;10632;51.276;7.116;2023-04-01T04:43:27;7.90;99.90
20946;DHT22;10632;51.276;7.116;2023-04-01T04:45:54;7.90;99.90
20946;DHT22;10632;51.276;7.116;2023-04-01T04:48:21;7.90;99.90
20946;DHT22;10632;51.276;7.116;2023-04-01T04:50:49;7.90;99.90
20946;DHT22;10632;51.276;7.116;2023-04-01T04:53:17;7.90;99.90
20946;DHT22;10632;51.276;7.116;2023-04-01T04:55:45;7.90;99.90
20946;DHT22;10632;51.276;7.116;2023-04-01T04:58:14;7.90;99.90
20946;DHT22;10632;51.276;7.116;2023-04-01T05:00:41;7.90;99.90
20946;DHT22;10632;51.276;7.116;2023-04-01T05:03:09;8.00;99.90
20946;DHT22;10632;51.276;7.116;2023-04-01T05:05:36;7.90;99.90
20946;DHT22;10632;51.276;7.116;2023-04-01T05:08:03;8.00;99.90
20946;DHT22;10632;51.276;7.116;2023-04-01T05:10:31;7.90;99.90
20946;DHT22;10632;51.276;7.116;2023-04-01T05:12:58;8.00;99.90
20946;DHT22;10632;51.276;7.116;2023-04-01T05:15:26;7.90;99.90
20946;DHT22;10632;51.276;7.116;2023-04-01T05:17:53;8.00;99.90
20946;DHT22;10632;51.276;7.116;2023-04-01T05:20:20;8.00;99.90
20946;DHT22;10632;51.276;7.116;2023-04-01T05:22:47;8.00;99.90
20946;DHT22;10632;51.276;7.116;2023-04-01T05:25:14;8.00;99.90
20946;DHT22;10632;51.276;7.116;2023-04-01T05:27:41;8.00;99.90
20946;DHT22;10632;51.276;7.116;2023-04-01T05:30:09;8.00;99.90
20946;DHT22;10632;51.276;7.116;2023-04-01T05:32:37;8.00;99.90
20946;DHT22;10632;51.276;7.116;2023-04-01T05:35:05;8.00;99.90
20946;DHT22;10632;51.276;7.116;2023-04-01T05:37:33;8.00;99.90
20946;DHT22;10632;51.276;7.116;2023-04-01T05:40:00;8.00;99.90
20946;DHT22;10632;51.276;7.116;2023-04-01T05:42:28;8.00;99.90
20946;DHT22;10632;51.276;7.116;2023-04-01T05:44:55;8.00;99.90
20946;DHT22;10632;51.276;7.116;2023-04-01T05:47:22;8.00;99.90
20946;DHT22;10632;51.276;7.116;2023-04-01T05:49:50;8.00;99.90
20946;DHT22;10632;51.276;7.116;2023-04-01T05:52:17;8.00;99.90
20946;DHT22;10632;51.276;7.116;2023-04-01T05:54:44;8.00;99.90
20946;DHT22;10632;51.276;7.116;2023-04-01T05:57:11;8.00;99.90
20946;DHT22;10632;51.276;7.116;2023-04-01T05:59:37;8.00;99.90
20946;DHT22;10632;51.276;7.116;2023-04-01T06:02:04;8.00;99.90
20946;DHT22;10632;51.276;7.116;2023-04-01T06:04:37;8.00;99.90
20946;DHT22;10632;51.276;7.116;2023-04-01T06:07:11;8.00;99.90
20946;DHT22;10632;51.276;7.116;2023-04-01T06:09:39;8.10;99.90
20946;DHT22;10632;51.276;7.116;2023-04-01T06:12:28;8.00;99.90
20946;DHT22;10632;51.276;7.116;2023-04-01T06:15:05;8.00;99.90
20946;DHT22;10632;51.276;7.116;2023-04-01T06:17:48;8.00;99.90
20946;DHT22;10632;51.276;7.116;2023-04-01T06:20:24;8.00;99.90
20946;DHT22;10632;51.276;7.116;2023-04-01T06:23:07;8.00;99.90
20946;DHT22;10632;51.276;7.116;2023-04-01T06:25:47;8.00;99.90
20946;DHT22;10632;51.276;7.116;2023-04-01T06:28:34;8.00;99.90
20946;DHT22;10632;51.276;7.116;2023-04-01T06:31:10;8.00;99.90
20946;DHT22;10632;51.276;7.116;2023-04-01T06:33:55;8.00;99.90
20946;DHT22;10632;51.276;7.116;2023-04-01T06:36:36;8.00;99.90
20946;DHT22;10632;51.276;7.116;2023-04-01T06:39:31;8.00;99.90
20946;DHT22;10632;51.276;7.116;2023-04-01T06:42:20;8.00;99.90
20946;DHT22;10632;51.276;7.116;2023-04-01T06:45:01;8.00;99.90
20946;DHT22;10632;51.276;7.116;2023-04-01T06:47:42;8.10;99.90
20946;DHT22;10632;51.276;7.116;2023-04-01T06:50:19;8.00;99.90
20946;DHT22;10632;51.276;7.116;2023-04-01T06:52:53;8.00;99.90
20946;DHT22;10632;51.276;7.116;2023-04-01T06:55:34;8.00;99.90
20946;DHT22;10632;51.276;7.116;2023-04-01T06:58:05;8.00;99.90
20946;DHT22;10632;51.276;7.116;2023-04-01T07:00:35;8.00;99.90
20946;DHT22;10632;51.276;7.116;2023-04-01T07:03:14;8.00;99.90
20946;DHT22;10632;51.276;7.116;2023-04-01T07:05:43;8.00;99.90
20946;DHT22;10632;51.276;7.116;2023-04-01T07:08:13;8.00;99.90
20946;DHT22;10632;51.276;7.116;2023-04-01T07:10:46;8.10;99.90
20946;DHT22;10632;51.276;7.116;2023-04-01T07:13:18;8.00;99.90
20946;DHT22;10632;51.276;7.116;2023-04-01T07:15:55;8.00;99.90
20946;DHT22;10632;51.276;7.116;2023-04-01T07:18:30;8.10;99.90
20946;DHT22;10632;51.276;7.116;2023-04-01T07:20:59;8.10;99.90
20946;DHT22;10632;51.276;7.116;2023-04-01T07:23:31;8.00;99.90
20946;DHT22;10632;51.276;7.116;2023-04-01T07:26:01;8.10;99.90
20946;DHT22;10632;51.276;7.116;2023-04-01T07:28:31;8.10;99.90
20946;DHT22;10632;51.276;7.116;2023-04-01T07:31:07;8.00;99.90
20946;DHT22;10632;51.276;7.116;2023-04-01T07:33:41;8.10;99.90
20946;DHT22;10632;51.276;7.116;2023-04-01T07:36:14;8.00;99.90
20946;DHT22;10632;51.276;7.116;2023-04-01T07:38:53;8.10;99.90
20946;DHT22;10632;51.276;7.116;2023-04-01T07:41:30;8.10;99.90
20946;DHT22;10632;51.276;7.116;2023-04-01T07:44:06;8.10;99.90
20946;DHT22;10632;51.276;7.116;2023-04-01T07:46:53;8.10;99.90
20946;DHT22;10632;51.276;7.116;2023-04-01T07:49:26;8.10;99.90
20946;DHT22;10632;51.276;7.116;2023-04-01T07:52:01;8.10;99.90
20946;DHT22;10632;51.276;7.116;2023-04-01T07:54:35;8.10;99.90
20946;DHT22;10632;51.276;7.116;2023-04-01T07:57:12;8.10;99.90
20946;DHT22;10632;51.276;7.116;2023-04-01T07:59:48;8.10;99.90
20946;DHT22;10632;51.276;7.116;2023-04-01T08:02:31;8.10;99.90
20946;DHT22;10632;51.276;7.116;2023-04-01T08:05:07;8.10;99.90
20946;DHT22;10632;51.276;7.116;2023-04-01T08:07:44;8.10;99.90
20946;DHT22;10632;51.276;7.116;2023-04-01T08:10:17;8.10;99.90
20946;DHT22;10632;51.276;7.116;2023-04-01T08:12:52;8.10;99.90
20946;DHT22;10632;51.276;7.116;2023-04-01T08:15:26;8.10;99.90
20946;DHT22;10632;51.276;7.116;2023-04-01T08:18:03;8.00;99.90
20946;DHT22;10632;51.276;7.116;2023-04-01T08:20:36;8.10;99.90
20946;DHT22;10632;51.276;7.116;2023-04-01T08:23:09;8.20;99.90
20946;DHT22;10632;51.276;7.116;2023-04-01T08:25:39;8.10;99.90
20946;DHT22;10632;51.276;7.116;2023-04-01T08:28:15;8.10;99.90
20946;DHT22;10632;51.276;7.116;2023-04-01T08:30:48;8.20;99.90
20946;DHT22;10632;51.276;7.116;2023-04-01T08:33:21;8.20;99.90
20946;DHT22;10632;51.276;7.116;2023-04-01T08:35:53;8.10;99.90
20946;DHT22;10632;51.276;7.116;2023-04-01T08:38:26;8.10;99.90
20946;DHT22;10632;51.276;7.116;2023-04-01T08:41:01;8.10;99.90
20946;DHT22;10632;51.276;7.116;2023-04-01T08:49:39;8.10;99.90
20946;DHT22;10632;51.276;7.116;2023-04-01T08:52:21;8.10;99.90
20946;DHT22;10632;51.276;7.116;2023-04-01T08:57:55;8.20;99.90
20946;DHT22;10632;51.276;7.116;2023-04-01T09:00:31;8.20;99.90
20946;DHT22;10632;51.276;7.116;2023-04-01T09:06:24;8.20;99.90
20946;DHT22;10632;51.276;7.116;2023-04-01T09:09:15;8.20;99.90
20946;DHT22;10632;51.276;7.116;2023-04-01T09:15:06;8.20;99.90
20946;DHT22;10632;51.276;7.116;2023-04-01T09:18:09;8.20;99.90
20946;DHT22;10632;51.276;7.116;2023-04-01T09:20:52;8.20;99.90
20946;DHT22;10632;51.276;7.116;2023-04-01T09:23:36;8.20;99.90
20946;DHT22;10632;51.276;7.116;2023-04-01T09:26:25;8.20;99.90
20946;DHT22;10632;51.276;7.116;2023-04-01T09:29:02;8.20;99.90
20946;DHT22;10632;51.276;7.116;2023-04-01T09:31:53;8.20;99.90
20946;DHT22;10632;51.276;7.116;2023-04-01T09:34:45;8.20;99.90
20946;DHT22;10632;51.276;7.116;2023-04-01T09:37:19;8.20;99.90
20946;DHT22;10632;51.276;7.116;2023-04-01T09:42:43;8.30;99.90
20946;DHT22;10632;51.276;7.116;2023-04-01T09:45:21;8.20;99.90
20946;DHT22;10632;51.276;7.116;2023-04-01T09:48:03;8.20;99.90
20946;DHT22;10632;51.276;7.116;2023-04-01T09:50:39;8.20;99.90
20946;DHT22;10632;51.276;7.116;2023-04-01T09:53:20;8.20;99.90
20946;DHT22;10632;51.276;7.116;2023-04-01T09:56:31;8.20;99.90
20946;DHT22;10632;51.276;7.116;2023-04-01T09:59:33;8.30;99.90
20946;DHT22;10632;51.276;7.116;2023-04-01T10:02:47;8.30;99.90
20946;DHT22;10632;51.276;7.116;2023-04-01T10:05:57;8.30;99.90
20946;DHT22;10632;51.276;7.116;2023-04-01T10:08:42;8.30;99.90
20946;DHT22;10632;51.276;7.116;2023-04-01T10:14:45;8.40;99.90
20946;DHT22;10632;51.276;7.116;2023-04-01T10:20:46;8.50;99.90
20946;DHT22;10632;51.276;7.116;2023-04-01T10:23:48;8.50;99.90
20946;DHT22;10632;51.276;7.116;2023-04-01T10:32:31;8.40;99.90
20946;DHT22;10632;51.276;7.116;2023-04-01T10:35:20;8.40;99.90
20946;DHT22;10632;51.276;7.116;2023-04-01T10:44:20;8.40;99.90
20946;DHT22;10632;51.276;7.116;2023-04-01T10:47:16;8.40;99.90
20946;DHT22;10632;51.276;7.116;2023-04-01T10:56:40;8.50;99.90
20946;DHT22;10632;51.276;7.116;2023-04-01T11:06:11;8.50;99.90
20946;DHT22;10632;51.276;7.116;2023-04-01T11:15:26;8.50;99.90
20946;DHT22;10632;51.276;7.116;2023-04-01T11:18:41;8.50;99.90
20946;DHT22;10632;51.276;7.116;2023-04-01T11:21:43;8.50;99.90
20946;DHT22;10632;51.276;7.116;2023-04-01T11:24:48;8.50;99.90
20946;DHT22;10632;51.276;7.116;2023-04-01T11:27:56;8.50;99.90
20946;DHT22;10632;51.276;7.116;2023-04-01T11:30:49;8.50;99.90
20946;DHT22;10632;51.276;7.116;2023-04-01T11:33:25;8.50;99.90
20946;DHT22;10632;51.276;7.116;2023-04-01T11:36:03;8.50;99.90
20946;DHT22;10632;51.276;7.116;2023-04-01T11:38:42;8.50;99.90
20946;DHT22;10632;51.276;7.116;2023-04-01T11:41:20;8.50;99.90
20946;DHT22;10632;51.276;7.116;2023-04-01T11:44:04;8.50;99.90
20946;DHT22;10632;51.276;7.116;2023-04-01T11:46:42;8.50;99.90
20946;DHT22;10632;51.276;7.116;2023-04-01T11:49:23;8.50;99.90
20946;DHT22;10632;51.276;7.116;2023-04-01T11:52:09;8.60;99.90
20946;DHT22;10632;51.276;7.116;2023-04-01T11:55:05;8.50;99.90
20946;DHT22;10632;51.276;7.116;2023-04-01T11:57:46;8.60;99.90
20946;DHT22;10632;51.276;7.116;2023-04-01T12:03:25;8.60;99.90
20946;DHT22;10632;51.276;7.116;2023-04-01T12:06:02;8.60;99.90
20946;DHT22;10632;51.276;7.116;2023-04-01T12:08:39;8.70;99.90
20946;DHT22;10632;51.276;7.116;2023-04-01T12:11:17;8.70;99.90
20946;DHT22;10632;51.276;7.116;2023-04-01T12:13:53;8.70;99.90
20946;DHT22;10632;51.276;7.116;2023-04-01T12:16:43;8.70;99.90
20946;DHT22;10632;51.276;7.116;2023-04-01T12:19:19;8.70;99.90
20946;DHT22;10632;51.276;7.116;2023-04-01T12:22:03;8.70;99.90
20946;DHT22;10632;51.276;7.116;2023-04-01T12:24:45;8.70;99.90
20946;DHT22;10632;51.276;7.116;2023-04-01T12:27:23;8.70;99.90
20946;DHT22;10632;51.276;7.116;2023-04-01T12:30:10;8.70;99.90
20946;DHT22;10632;51.276;7.116;2023-04-01T12:32:46;8.70;99.90
20946;DHT22;10632;51.276;7.116;2023-04-01T12:35:21;8.70;99.90
20946;DHT22;10632;51.276;7.116;2023-04-01T12:38:03;8.70;99.90
20946;DHT22;10632;51.276;7.116;2023-04-01T12:40:57;8.70;99.90
20946;DHT22;10632;51.276;7.116;2023-04-01T12:46:42;8.70;99.90
20946;DHT22;10632;51.276;7.116;2023-04-01T12:49:48;8.60;99.90
20946;DHT22;10632;51.276;7.116;2023-04-01T12:52:21;8.60;99.90
20946;DHT22;10632;51.276;7.116;2023-04-01T12:55:19;8.60;99.90
20946;DHT22;10632;51.276;7.116;2023-04-01T13:06:57;8.60;99.90
20946;DHT22;10632;51.276;7.116;2023-04-01T13:09:37;8.70;99.90
20946;DHT22;10632;51.276;7.116;2023-04-01T13:12:29;8.70;99.90
20946;DHT22;10632;51.276;7.116;2023-04-01T13:15:19;8.60;99.90
20946;DHT22;10632;51.276;7.116;2023-04-01T13:17:53;8.60;99.90
20946;DHT22;10632;51.276;7.116;2023-04-01T13:20:34;8.70;99.90
20946;DHT22;10632;51.276;7.116;2023-04-01T13:23:14;8.60;99.90
20946;DHT22;10632;51.276;7.116;2023-04-01T13:25:50;8.60;99.90
20946;DHT22;10632;51.276;7.116;2023-04-01T13:28:22;8.60;99.90
20946;DHT22;10632;51.276;7.116;2023-04-01T13:30:57;8.60;99.90
20946;DHT22;10632;51.276;7.116;2023-04-01T13:33:31;8.70;99.90
20946;DHT22;10632;51.276;7.116;2023-04-01T13:36:11;8.70;99.90
20946;DHT22;10632;51.276;7.116;2023-04-01T13:39:07;8.70;99.90
20946;DHT22;10632;51.276;7.116;2023-04-01T13:42:08;8.70;99.90
20946;DHT22;10632;51.276;7.116;2023-04-01T13:44:40;8.70;99.90
20946;DHT22;10632;51.276;7.116;2023-04-01T13:47:34;8.70;99.90
20946;DHT22;10632;51.276;7.116;2023-04-01T13:50:25;8.70;99.90
20946;DHT22;10632;51.276;7.116;2023-04-01T13:56:24;8.80;99.90
20946;DHT22;10632;51.276;7.116;2023-04-01T13:59:10;8.80;99.90
20946;DHT22;10632;51.276;7.116;2023-04-01T14:01:49;8.70;99.90
20946;DHT22;10632;51.276;7.116;2023-04-01T14:04:34;8.80;99.90
20946;DHT22;10632;51.276;7.116;2023-04-01T14:07:37;8.70;99.90
20946;DHT22;10632;51.276;7.116;2023-04-01T14:10:16;8.70;99.90
20946;DHT22;10632;51.276;7.116;2023-04-01T14:12:49;8.70;99.90
20946;DHT22;10632;51.276;7.116;2023-04-01T14:21:33;8.70;99.90
20946;DHT22;10632;51.276;7.116;2023-04-01T14:24:22;8.70;99.90
20946;DHT22;10632;51.276;7.116;2023-04-01T14:27:12;8.70;99.90
20946;DHT22;10632;51.276;7.116;2023-04-01T14:29:56;8.70;99.90
20946;DHT22;10632;51.276;7.116;2023-04-01T14:32:32;8.80;99.90
20946;DHT22;10632;51.276;7.116;2023-04-01T14:35:19;8.80;99.90
20946;DHT22;10632;51.276;7.116;2023-04-01T14:38:02;8.80;99.90
20946;DHT22;10632;51.276;7.116;2023-04-01T14:41:00;8.80;99.90
20946;DHT22;10632;51.276;7.116;2023-04-01T14:47:10;8.80;99.90
20946;DHT22;10632;51.276;7.116;2023-04-01T14:49:43;8.70;99.90
20946;DHT22;10632;51.276;7.116;2023-04-01T14:52:15;8.80;99.90
20946;DHT22;10632;51.276;7.116;2023-04-01T14:54:46;8.80;99.90
20946;DHT22;10632;51.276;7.116;2023-04-01T14:57:16;8.80;99.90
20946;DHT22;10632;51.276;7.116;2023-04-01T14:59:51;8.80;99.90
20946;DHT22;10632;51.276;7.116;2023-04-01T15:02:42;8.70;99.90
20946;DHT22;10632;51.276;7.116;2023-04-01T15:05:20;8.70;99.90
20946;DHT22;10632;51.276;7.116;2023-04-01T15:08:08;8.70;99.90
20946;DHT22;10632;51.276;7.116;2023-04-01T15:16:55;8.70;99.90
20946;DHT22;10632;51.276;7.116;2023-04-01T15:19:36;8.70;99.90
20946;DHT22;10632;51.276;7.116;2023-04-01T15:22:19;8.80;99.90
20946;DHT22;10632;51.276;7.116;2023-04-01T15:25:02;8.70;99.90
20946;DHT22;10632;51.276;7.116;2023-04-01T15:27:38;8.80;99.90
20946;DHT22;10632;51.276;7.116;2023-04-01T15:30:32;8.70;99.90
20946;DHT22;10632;51.276;7.116;2023-04-01T15:36:00;8.80;99.90
20946;DHT22;10632;51.276;7.116;2023-04-01T15:38:34;8.80;99.90
20946;DHT22;10632;51.276;7.116;2023-04-01T15:41:10;8.80;99.90
20946;DHT22;10632;51.276;7.116;2023-04-01T15:43:42;8.80;99.90
20946;DHT22;10632;51.276;7.116;2023-04-01T15:46:27;8.80;99.90
20946;DHT22;10632;51.276;7.116;2023-04-01T15:49:15;8.80;99.90
20946;DHT22;10632;51.276;7.116;2023-04-01T15:52:05;8.80;99.90
20946;DHT22;10632;51.276;7.116;2023-04-01T15:54:51;8.80;99.90
20946;DHT22;10632;51.276;7.116;2023-04-01T15:57:28;8.80;99.90
20946;DHT22;10632;51.276;7.116;2023-04-01T16:00:18;8.80;99.90
20946;DHT22;10632;51.276;7.116;2023-04-01T16:02:52;8.80;99.90
20946;DHT22;10632;51.276;7.116;2023-04-01T16:05:39;8.80;99.90
20946;DHT22;10632;51.276;7.116;2023-04-01T16:08:41;8.70;99.90
20946;DHT22;10632;51.276;7.116;2023-04-01T16:11:18;8.80;99.90
20946;DHT22;10632;51.276;7.116;2023-04-01T16:13:58;8.80;99.90
20946;DHT22;10632;51.276;7.116;2023-04-01T16:16:39;8.80;99.90
20946;DHT22;10632;51.276;7.116;2023-04-01T16:19:28;8.70;99.90
20946;DHT22;10632;51.276;7.116;2023-04-01T16:22:00;8.70;99.90
20946;DHT22;10632;51.276;7.116;2023-04-01T16:24:34;8.70;99.90
20946;DHT22;10632;51.276;7.116;2023-04-01T16:27:05;8.70;99.90
20946;DHT22;10632;51.276;7.116;2023-04-01T16:29:40;8.70;99.90
20946;DHT22;10632;51.276;7.116;2023-04-01T16:32:20;8.70;99.90
20946;DHT22;10632;51.276;7.116;2023-04-01T16:34:56;8.70;99.90
20946;DHT22;10632;51.276;7.116;2023-04-01T16:37:31;8.70;99.90
20946;DHT22;10632;51.276;7.116;2023-04-01T16:40:12;8.70;99.90
20946;DHT22;10632;51.276;7.116;2023-04-01T16:42:47;8.70;99.90
20946;DHT22;10632;51.276;7.116;2023-04-01T16:45:26;8.70;99.90
20946;DHT22;10632;51.276;7.116;2023-04-01T16:48:01;8.70;99.90
20946;DHT22;10632;51.276;7.116;2023-04-01T16:50:44;8.70;99.90
20946;DHT22;10632;51.276;7.116;2023-04-01T16:53:17;8.70;99.90
20946;DHT22;10632;51.276;7.116;2023-04-01T16:55:50;8.70;99.90
20946;DHT22;10632;51.276;7.116;2023-04-01T16:58:23;8.70;99.90
20946;DHT22;10632;51.276;7.116;2023-04-01T17:00:55;8.70;99.90
20946;DHT22;10632;51.276;7.116;2023-04-01T17:03:28;8.70;99.90
20946;DHT22;10632;51.276;7.116;2023-04-01T17:06:07;8.70;99.90
20946;DHT22;10632;51.276;7.116;2023-04-01T17:09:01;8.70;99.90
20946;DHT22;10632;51.276;7.116;2023-04-01T17:11:36;8.70;99.90
20946;DHT22;10632;51.276;7.116;2023-04-01T17:14:13;8.70;99.90
20946;DHT22;10632;51.276;7.116;2023-04-01T17:19:56;8.70;99.90
20946;DHT22;10632;51.276;7.116;2023-04-01T17:22:32;8.70;99.90
20946;DHT22;10632;51.276;7.116;2023-04-01T17:25:13;8.70;99.90
20946;DHT22;10632;51.276;7.116;2023-04-01T17:27:50;8.70;99.90
20946;DHT22;10632;51.276;7.116;2023-04-01T17:30:25;8.60;99.90
20946;DHT22;10632;51.276;7.116;2023-04-01T17:33:12;8.60;99.90
20946;DHT22;10632;51.276;7.116;2023-04-01T17:35:50;8.60;99.90
20946;DHT22;10632;51.276;7.116;2023-04-01T17:38:27;8.60;99.90
20946;DHT22;10632;51.276;7.116;2023-04-01T17:41:01;8.60;99.90
20946;DHT22;10632;51.276;7.116;2023-04-01T17:43:38;8.60;99.90
20946;DHT22;10632;51.276;7.116;2023-04-01T17:46:28;8.60;99.90
20946;DHT22;10632;51.276;7.116;2023-04-01T17:49:02;8.60;99.90
20946;DHT22;10632;51.276;7.116;2023-04-01T17:51:38;8.60;99.90
20946;DHT22;10632;51.276;7.116;2023-04-01T17:54:19;8.60;99.90
20946;DHT22;10632;51.276;7.116;2023-04-01T17:56:57;8.60;99.90
20946;DHT22;10632;51.276;7.116;2023-04-01T17:59:35;8.60;99.90
20946;DHT22;10632;51.276;7.116;2023-04-01T18:02:11;8.60;99.90
20946;DHT22;10632;51.276;7.116;2023-04-01T18:05:05;8.50;99.90
20946;DHT22;10632;51.276;7.116;2023-04-01T18:08:07;8.60;99.90
20946;DHT22;10632;51.276;7.116;2023-04-01T18:10:47;8.60;99.90
20946;DHT22;10632;51.276;7.116;2023-04-01T18:16:43;8.60;99.90
20946;DHT22;10632;51.276;7.116;2023-04-01T18:19:21;8.60;99.90
20946;DHT22;10632;51.276;7.116;2023-04-01T18:21:54;8.60;99.90
20946;DHT22;10632;51.276;7.116;2023-04-01T18:24:27;8.60;99.90
20946;DHT22;10632;51.276;7.116;2023-04-01T18:27:03;8.80;99.90
20946;DHT22;10632;51.276;7.116;2023-04-01T18:29:37;8.60;99.90
20946;DHT22;10632;51.276;7.116;2023-04-01T18:32:17;8.60;99.90
20946;DHT22;10632;51.276;7.116;2023-04-01T18:35:02;8.60;99.90
20946;DHT22;10632;51.276;7.116;2023-04-01T18:37:41;8.60;99.90